sensor_id;sensor_type;location;lat;lon;timestamp;temperature;humidity
7445;DHT22;3764;48.126;11.594;2023-01-30T00:01:19;-1.20;99.90
7445;DHT22;3764;48.126;11.594;2023-01-30T00:03:48;-1.20;99.90
7445;DHT22;3764;48.126;11.594;2023-01-30T00:06:15;-1.30;99.90
7445;DHT22;3764;48.126;11.594;2023-01-30T00:08:43;-1.40;99.90
7445;DHT22;3764;48.126;11.594;2023-01-30T00:11:12;-1.40;99.90
7445;DHT22;3764;48.126;11.594;2023-01-30T00:13:41;-1.40;99.90
7445;DHT22;3764;48.126;11.594;2023-01-30T00:16:08;-1.40;99.90
7445;DHT22;3764;48.126;11.594;2023-01-30T00:18:36;-1.40;99.90
7445;DHT22;3764;48.126;11.594;2023-01-30T00:21:06;-1.50;99.90
7445;DHT22;3764;48.126;11.594;2023-01-30T00:23:34;-1.50;99.90
7445;DHT22;3764;48.126;11.594;2023-01-30T00:26:02;-1.60;99.90
7445;DHT22;3764;48.126;11.594;2023-01-30T00:28:29;-1.60;99.90
7445;DHT22;3764;48.126;11.594;2023-01-30T00:30:56;-1.60;99.90
7445;DHT22;3764;48.126;11.594;2023-01-30T00:33:25;-1.60;99.90
7445;DHT22;3764;48.126;11.594;2023-01-30T00:35:54;-1.60;99.90
7445;DHT22;3764;48.126;11.594;2023-01-30T00:38:23;-1.60;99.90
7445;DHT22;3764;48.126;11.594;2023-01-30T00:40:51;-1.60;99.90
7445;DHT22;3764;48.126;11.594;2023-01-30T00:43:19;-1.60;99.90
7445;DHT22;3764;48.126;11.594;2023-01-30T00:46:11;-1.70;99.90
7445;DHT22;3764;48.126;11.594;2023-01-30T00:48:57;-1.70;99.90
7445;DHT22;3764;48.126;11.594;2023-01-30T00:51:24;-1.60;99.90
7445;DHT22;3764;48.126;11.594;2023-01-30T00:53:53;-1.60;99.90
7445;DHT22;3764;48.126;11.594;2023-01-30T00:56:20;-1.70;99.90
7445;DHT22;3764;48.126;11.594;2023-01-30T00:58:47;-1.70;99.90
7445;DHT22;3764;48.126;11.594;2023-01-30T01:01:14;-1.70;99.90
7445;DHT22;3764;48.126;11.594;2023-01-30T01:03:41;-1.60;99.90
7445;DHT22;3764;48.126;11.594;2023-01-30T01:06:09;-1.70;99.90
7445;DHT22;3764;48.126;11.594;2023-01-30T01:08:36;-1.60;99.90
7445;DHT22;3764;48.126;11.594;2023-01-30T01:11:04;-1.70;99.90
7445;DHT22;3764;48.126;11.594;2023-01-30T01:13:31;-1.70;99.90
7445;DHT22;3764;48.126;11.594;2023-01-30T01:15:58;-1.70;99.90
7445;DHT22;3764;48.126;11.594;2023-01-30T01:18:25;-1.80;99.90
7445;DHT22;3764;48.126;11.594;2023-01-30T01:20:53;-1.80;99.90
7445;DHT22;3764;48.126;11.594;2023-01-30T01:23:20;-1.80;99.90
7445;DHT22;3764;48.126;11.594;2023-01-30T01:25:47;-1.80;99.90
7445;DHT22;3764;48.126;11.594;2023-01-30T01:28:15;-1.80;99.90
7445;DHT22;3764;48.126;11.594;2023-01-30T01:30:46;-1.80;99.90
7445;DHT22;3764;48.126;11.594;2023-01-30T01:33:14;-1.80;99.90
7445;DHT22;3764;48.126;11.594;2023-01-30T01:35:41;-1.80;99.90
7445;DHT22;3764;48.126;11.594;2023-01-30T01:38:08;-1.70;99.90
7445;DHT22;3764;48.126;11.594;2023-01-30T01:40:35;-1.70;99.90
7445;DHT22;3764;48.126;11.594;2023-01-30T01:43:22;-1.60;99.90
7445;DHT22;3764;48.126;11.594;2023-01-30T01:45:54;-1.70;99.90
7445;DHT22;3764;48.126;11.594;2023-01-30T01:48:26;-1.70;99.90
7445;DHT22;3764;48.126;11.594;2023-01-30T01:50:56;-1.70;99.90
7445;DHT22;3764;48.126;11.594;2023-01-30T01:53:28;-1.70;99.90
7445;DHT22;3764;48.126;11.594;2023-01-30T01:55:57;-1.60;99.90
7445;DHT22;3764;48.126;11.594;2023-01-30T01:58:30;-1.70;99.90
7445;DHT22;3764;48.126;11.594;2023-01-30T02:01:00;-1.70;99.90
7445;DHT22;3764;48.126;11.594;2023-01-30T02:03:31;-1.70;99.90
7445;DHT22;3764;48.126;11.594;2023-01-30T02:06:00;-1.70;99.90
7445;DHT22;3764;48.126;11.594;2023-01-30T02:08:30;-1.70;99.90
7445;DHT22;3764;48.126;11.594;2023-01-30T02:11:03;-1.70;99.90
7445;DHT22;3764;48.126;11.594;2023-01-30T02:13:33;-1.60;99.90
7445;DHT22;3764;48.126;11.594;2023-01-30T02:16:05;-1.60;99.90
7445;DHT22;3764;48.126;11.594;2023-01-30T02:18:34;-1.50;99.90
7445;DHT22;3764;48.126;11.594;2023-01-30T02:24:01;-1.40;99.90
7445;DHT22;3764;48.126;11.594;2023-01-30T02:26:59;-1.40;99.90
7445;DHT22;3764;48.126;11.594;2023-01-30T02:32:34;-1.40;99.90
7445;DHT22;3764;48.126;11.594;2023-01-30T02:35:11;-1.40;99.90
7445;DHT22;3764;48.126;11.594;2023-01-30T02:37:48;-1.40;99.90
7445;DHT22;3764;48.126;11.594;2023-01-30T02:40:37;-1.30;99.90
7445;DHT22;3764;48.126;11.594;2023-01-30T02:43:12;-1.50;99.90
7445;DHT22;3764;48.126;11.594;2023-01-30T02:45:49;-1.50;99.90
7445;DHT22;3764;48.126;11.594;2023-01-30T02:48:20;-1.40;99.90
7445;DHT22;3764;48.126;11.594;2023-01-30T02:50:52;-1.40;99.90
7445;DHT22;3764;48.126;11.594;2023-01-30T02:53:21;-1.30;99.90
7445;DHT22;3764;48.126;11.594;2023-01-30T02:55:49;-1.30;99.90
7445;DHT22;3764;48.126;11.594;2023-01-30T02:58:19;-1.30;99.90
7445;DHT22;3764;48.126;11.594;2023-01-30T03:01:09;-1.30;99.90
7445;DHT22;3764;48.126;11.594;2023-01-30T03:03:53;-1.30;99.90
7445;DHT22;3764;48.126;11.594;2023-01-30T03:06:36;-1.30;99.90
7445;DHT22;3764;48.126;11.594;2023-01-30T03:09:14;-1.30;99.90
7445;DHT22;3764;48.126;11.594;2023-01-30T03:11:46;-1.30;99.90
7445;DHT22;3764;48.126;11.594;2023-01-30T03:14:20;-1.40;99.90
7445;DHT22;3764;48.126;11.594;2023-01-30T03:16:50;-1.40;99.90
7445;DHT22;3764;48.126;11.594;2023-01-30T03:19:20;-1.40;99.90
7445;DHT22;3764;48.126;11.594;2023-01-30T03:21:47;-1.40;99.90
7445;DHT22;3764;48.126;11.594;2023-01-30T03:24:15;-1.50;99.90
7445;DHT22;3764;48.126;11.594;2023-01-30T03:26:47;-1.60;99.90
7445;DHT22;3764;48.126;11.594;2023-01-30T03:29:14;-1.60;99.90
7445;DHT22;3764;48.126;11.594;2023-01-30T03:31:42;-1.60;99.90
7445;DHT22;3764;48.126;11.594;2023-01-30T03:34:09;-1.70;99.90
7445;DHT22;3764;48.126;11.594;2023-01-30T03:36:37;-1.80;99.90
7445;DHT22;3764;48.126;11.594;2023-01-30T03:39:04;-1.90;99.90
7445;DHT22;3764;48.126;11.594;2023-01-30T03:41:31;-2.00;99.90
7445;DHT22;3764;48.126;11.594;2023-01-30T03:43:59;-2.00;99.90
7445;DHT22;3764;48.126;11.594;2023-01-30T03:46:26;-2.00;99.90
7445;DHT22;3764;48.126;11.594;2023-01-30T03:48:53;-2.00;99.90
7445;DHT22;3764;48.126;11.594;2023-01-30T03:51:21;-2.00;99.90
7445;DHT22;3764;48.126;11.594;2023-01-30T03:53:50;-2.00;99.90
7445;DHT22;3764;48.126;11.594;2023-01-30T03:56:17;-2.00;99.90
7445;DHT22;3764;48.126;11.594;2023-01-30T03:58:44;-2.00;99.90
7445;DHT22;3764;48.126;11.594;2023-01-30T04:01:11;-2.00;99.90
7445;DHT22;3764;48.126;11.594;2023-01-30T04:03:38;-2.10;99.90
7445;DHT22;3764;48.126;11.594;2023-01-30T04:06:05;-2.00;99.90
7445;DHT22;3764;48.126;11.594;2023-01-30T04:08:33;-2.00;99.90
7445;DHT22;3764;48.126;11.594;2023-01-30T04:11:01;-1.90;99.90
7445;DHT22;3764;48.126;11.594;2023-01-30T04:13:28;-1.90;99.90
7445;DHT22;3764;48.126;11.594;2023-01-30T04:16:14;-1.90;99.90
7445;DHT22;3764;48.126;11.594;2023-01-30T04:18:41;-1.90;99.90
7445;DHT22;3764;48.126;11.594;2023-01-30T04:21:08;-1.80;99.90
7445;DHT22;3764;48.126;11.594;2023-01-30T04:23:35;-1.70;99.90
7445;DHT22;3764;48.126;11.594;2023-01-30T04:26:05;-1.70;99.90
7445;DHT22;3764;48.126;11.594;2023-01-30T04:28:32;-1.70;99.90
7445;DHT22;3764;48.126;11.594;2023-01-30T04:30:59;-1.70;99.90
7445;DHT22;3764;48.126;11.594;2023-01-30T04:33:26;-1.70;99.90
7445;DHT22;3764;48.126;11.594;2023-01-30T04:35:53;-1.60;99.90
7445;DHT22;3764;48.126;11.594;2023-01-30T04:38:21;-1.60;99.90
7445;DHT22;3764;48.126;11.594;2023-01-30T04:40:49;-1.50;99.90
7445;DHT22;3764;48.126;11.594;2023-01-30T04:43:18;-1.50;99.90
7445;DHT22;3764;48.126;11.594;2023-01-30T04:45:45;-1.60;99.90
7445;DHT22;3764;48.126;11.594;2023-01-30T04:48:13;-1.60;99.90
7445;DHT22;3764;48.126;11.594;2023-01-30T04:50:41;-1.60;99.90
7445;DHT22;3764;48.126;11.594;2023-01-30T04:53:09;-1.70;99.90
7445;DHT22;3764;48.126;11.594;2023-01-30T04:55:36;-1.70;99.90
7445;DHT22;3764;48.126;11.594;2023-01-30T04:58:04;-1.80;99.90
7445;DHT22;3764;48.126;11.594;2023-01-30T05:00:32;-1.80;99.90
7445;DHT22;3764;48.126;11.594;2023-01-30T05:03:00;-1.80;99.90
7445;DHT22;3764;48.126;11.594;2023-01-30T05:05:27;-1.70;99.90
7445;DHT22;3764;48.126;11.594;2023-01-30T05:07:54;-1.70;99.90
7445;DHT22;3764;48.126;11.594;2023-01-30T05:10:21;-1.70;99.90
7445;DHT22;3764;48.126;11.594;2023-01-30T05:12:49;-1.70;99.90
7445;DHT22;3764;48.126;11.594;2023-01-30T05:15:16;-1.70;99.90
7445;DHT22;3764;48.126;11.594;2023-01-30T05:17:45;-1.60;99.90
7445;DHT22;3764;48.126;11.594;2023-01-30T05:20:12;-1.70;99.90
7445;DHT22;3764;48.126;11.594;2023-01-30T05:22:39;-1.70;99.90
7445;DHT22;3764;48.126;11.594;2023-01-30T05:25:07;-1.70;99.90
7445;DHT22;3764;48.126;11.594;2023-01-30T05:27:35;-1.80;99.90
7445;DHT22;3764;48.126;11.594;2023-01-30T05:30:02;-1.80;99.90
7445;DHT22;3764;48.126;11.594;2023-01-30T05:32:29;-1.80;99.90
7445;DHT22;3764;48.126;11.594;2023-01-30T05:34:58;-1.80;99.90
7445;DHT22;3764;48.126;11.594;2023-01-30T05:37:25;-1.80;99.90
7445;DHT22;3764;48.126;11.594;2023-01-30T05:39:52;-1.80;99.90
7445;DHT22;3764;48.126;11.594;2023-01-30T05:42:19;-1.80;99.90
7445;DHT22;3764;48.126;11.594;2023-01-30T05:44:46;-1.70;99.90
7445;DHT22;3764;48.126;11.594;2023-01-30T05:47:13;-1.60;99.90
7445;DHT22;3764;48.126;11.594;2023-01-30T05:49:40;-1.60;99.90
7445;DHT22;3764;48.126;11.594;2023-01-30T05:52:09;-1.60;99.90
7445;DHT22;3764;48.126;11.594;2023-01-30T05:54:39;-1.60;99.90
7445;DHT22;3764;48.126;11.594;2023-01-30T05:57:06;-1.60;99.90
7445;DHT22;3764;48.126;11.594;2023-01-30T05:59:33;-1.60;99.90
7445;DHT22;3764;48.126;11.594;2023-01-30T06:02:00;-1.60;99.90
7445;DHT22;3764;48.126;11.594;2023-01-30T06:04:27;-1.60;99.90
7445;DHT22;3764;48.126;11.594;2023-01-30T06:06:54;-1.60;99.90
7445;DHT22;3764;48.126;11.594;2023-01-30T06:09:22;-1.60;99.90
7445;DHT22;3764;48.126;11.594;2023-01-30T06:11:49;-1.50;99.90
7445;DHT22;3764;48.126;11.594;2023-01-30T06:14:17;-1.50;99.90
7445;DHT22;3764;48.126;11.594;2023-01-30T06:16:44;-1.50;99.90
7445;DHT22;3764;48.126;11.594;2023-01-30T06:19:11;-1.50;99.90
7445;DHT22;3764;48.126;11.594;2023-01-30T06:21:38;-1.40;99.90
7445;DHT22;3764;48.126;11.594;2023-01-30T06:24:05;-1.40;99.90
7445;DHT22;3764;48.126;11.594;2023-01-30T06:26:34;-1.40;99.90
7445;DHT22;3764;48.126;11.594;2023-01-30T06:29:01;-1.50;99.90
7445;DHT22;3764;48.126;11.594;2023-01-30T06:31:28;-1.50;99.90
7445;DHT22;3764;48.126;11.594;2023-01-30T06:33:55;-1.50;99.90
7445;DHT22;3764;48.126;11.594;2023-01-30T06:36:22;-1.50;99.90
7445;DHT22;3764;48.126;11.594;2023-01-30T06:38:49;-1.40;99.90
7445;DHT22;3764;48.126;11.594;2023-01-30T06:41:16;-1.40;99.90
7445;DHT22;3764;48.126;11.594;2023-01-30T06:43:45;-1.40;99.90
7445;DHT22;3764;48.126;11.594;2023-01-30T06:46:12;-1.40;99.90
7445;DHT22;3764;48.126;11.594;2023-01-30T06:48:39;-1.30;99.90
7445;DHT22;3764;48.126;11.594;2023-01-30T06:51:06;-1.30;99.90
7445;DHT22;3764;48.126;11.594;2023-01-30T06:53:33;-1.20;99.90
7445;DHT22;3764;48.126;11.594;2023-01-30T06:56:00;-1.20;99.90
7445;DHT22;3764;48.126;11.594;2023-01-30T06:58:27;-1.10;99.90
7445;DHT22;3764;48.126;11.594;2023-01-30T07:00:56;-1.10;99.90
7445;DHT22;3764;48.126;11.594;2023-01-30T07:03:23;-1.10;99.90
7445;DHT22;3764;48.126;11.594;2023-01-30T07:05:50;-1.10;99.90
7445;DHT22;3764;48.126;11.594;2023-01-30T07:08:18;-1.00;99.90
7445;DHT22;3764;48.126;11.594;2023-01-30T07:10:45;-1.00;99.90
7445;DHT22;3764;48.126;11.594;2023-01-30T07:13:12;-1.00;99.90
7445;DHT22;3764;48.126;11.594;2023-01-30T07:15:39;-1.00;99.90
7445;DHT22;3764;48.126;11.594;2023-01-30T07:18:08;-0.90;99.90
7445;DHT22;3764;48.126;11.594;2023-01-30T07:20:35;-0.80;99.90
7445;DHT22;3764;48.126;11.594;2023-01-30T07:23:02;-0.80;99.90
7445;DHT22;3764;48.126;11.594;2023-01-30T07:25:29;-0.80;99.90
7445;DHT22;3764;48.126;11.594;2023-01-30T07:27:58;-0.80;99.90
7445;DHT22;3764;48.126;11.594;2023-01-30T07:30:27;-0.70;99.90
7445;DHT22;3764;48.126;11.594;2023-01-30T07:32:56;-0.70;99.90
7445;DHT22;3764;48.126;11.594;2023-01-30T07:35:25;-0.70;99.90
7445;DHT22;3764;48.126;11.594;2023-01-30T07:37:53;-0.60;99.90
7445;DHT22;3764;48.126;11.594;2023-01-30T07:40:20;-0.60;99.90
7445;DHT22;3764;48.126;11.594;2023-01-30T07:42:58;-0.60;99.90
7445;DHT22;3764;48.126;11.594;2023-01-30T07:45:28;-0.60;99.90
7445;DHT22;3764;48.126;11.594;2023-01-30T07:47:56;-0.60;99.90
7445;DHT22;3764;48.126;11.594;2023-01-30T07:50:25;-0.50;99.90
7445;DHT22;3764;48.126;11.594;2023-01-30T07:52:52;-0.50;99.90
7445;DHT22;3764;48.126;11.594;2023-01-30T07:55:19;-0.40;99.90
7445;DHT22;3764;48.126;11.594;2023-01-30T07:57:46;-0.40;99.90
7445;DHT22;3764;48.126;11.594;2023-01-30T08:00:14;-0.50;99.90
7445;DHT22;3764;48.126;11.594;2023-01-30T08:02:42;-0.40;99.90
7445;DHT22;3764;48.126;11.594;2023-01-30T08:05:09;-0.40;99.90
7445;DHT22;3764;48.126;11.594;2023-01-30T08:07:37;-0.30;99.90
7445;DHT22;3764;48.126;11.594;2023-01-30T08:10:05;-0.30;99.90
7445;DHT22;3764;48.126;11.594;2023-01-30T08:12:33;-0.20;99.90
7445;DHT22;3764;48.126;11.594;2023-01-30T08:15:00;-0.10;99.90
7445;DHT22;3764;48.126;11.594;2023-01-30T08:17:27;0.00;99.90
7445;DHT22;3764;48.126;11.594;2023-01-30T08:19:54;0.10;99.90
7445;DHT22;3764;48.126;11.594;2023-01-30T08:22:21;0.10;99.90
7445;DHT22;3764;48.126;11.594;2023-01-30T08:24:50;0.10;99.90
7445;DHT22;3764;48.126;11.594;2023-01-30T08:27:17;0.20;99.90
7445;DHT22;3764;48.126;11.594;2023-01-30T08:29:44;0.20;99.90
7445;DHT22;3764;48.126;11.594;2023-01-30T08:32:11;0.20;99.90
7445;DHT22;3764;48.126;11.594;2023-01-30T08:34:38;0.30;99.90
7445;DHT22;3764;48.126;11.594;2023-01-30T08:37:05;0.30;99.90
7445;DHT22;3764;48.126;11.594;2023-01-30T08:39:32;0.40;99.90
7445;DHT22;3764;48.126;11.594;2023-01-30T08:42:01;0.40;99.90
7445;DHT22;3764;48.126;11.594;2023-01-30T08:44:28;0.40;99.90
7445;DHT22;3764;48.126;11.594;2023-01-30T08:46:55;0.40;99.90
7445;DHT22;3764;48.126;11.594;2023-01-30T08:49:22;0.40;99.90
7445;DHT22;3764;48.126;11.594;2023-01-30T08:51:49;0.40;99.90
7445;DHT22;3764;48.126;11.594;2023-01-30T08:54:16;0.50;99.90
7445;DHT22;3764;48.126;11.594;2023-01-30T08:56:43;0.60;99.90
7445;DHT22;3764;48.126;11.594;2023-01-30T08:59:12;0.60;99.90
7445;DHT22;3764;48.126;11.594;2023-01-30T09:01:39;0.60;99.90
7445;DHT22;3764;48.126;11.594;2023-01-30T09:04:06;0.70;99.90
7445;DHT22;3764;48.126;11.594;2023-01-30T09:06:34;0.70;99.90
7445;DHT22;3764;48.126;11.594;2023-01-30T09:09:01;0.80;99.90
7445;DHT22;3764;48.126;11.594;2023-01-30T09:11:28;0.90;99.90
7445;DHT22;3764;48.126;11.594;2023-01-30T09:13:55;0.80;99.90
7445;DHT22;3764;48.126;11.594;2023-01-30T09:16:23;0.80;99.90
7445;DHT22;3764;48.126;11.594;2023-01-30T09:18:50;0.90;99.90
7445;DHT22;3764;48.126;11.594;2023-01-30T09:21:17;1.00;99.90
7445;DHT22;3764;48.126;11.594;2023-01-30T09:23:44;1.00;99.90
7445;DHT22;3764;48.126;11.594;2023-01-30T09:26:11;1.10;99.90
7445;DHT22;3764;48.126;11.594;2023-01-30T09:28:38;1.10;99.90
7445;DHT22;3764;48.126;11.594;2023-01-30T09:31:05;1.10;99.90
7445;DHT22;3764;48.126;11.594;2023-01-30T09:33:34;1.10;99.90
7445;DHT22;3764;48.126;11.594;2023-01-30T09:36:01;1.10;99.90
7445;DHT22;3764;48.126;11.594;2023-01-30T09:38:28;1.20;99.90
7445;DHT22;3764;48.126;11.594;2023-01-30T09:41:06;1.20;99.90
7445;DHT22;3764;48.126;11.594;2023-01-30T09:43:50;1.20;99.90
7445;DHT22;3764;48.126;11.594;2023-01-30T09:46:29;1.20;99.90
7445;DHT22;3764;48.126;11.594;2023-01-30T09:49:08;1.30;99.90
7445;DHT22;3764;48.126;11.594;2023-01-30T09:51:44;1.30;99.90
7445;DHT22;3764;48.126;11.594;2023-01-30T09:54:16;1.40;99.90
7445;DHT22;3764;48.126;11.594;2023-01-30T09:56:51;1.40;99.90
7445;DHT22;3764;48.126;11.594;2023-01-30T09:59:23;1.50;99.90
7445;DHT22;3764;48.126;11.594;2023-01-30T10:01:58;1.50;99.90
7445;DHT22;3764;48.126;11.594;2023-01-30T10:04:32;1.60;99.90
7445;DHT22;3764;48.126;11.594;2023-01-30T10:07:06;1.70;99.90
7445;DHT22;3764;48.126;11.594;2023-01-30T10:09:41;1.90;99.90
7445;DHT22;3764;48.126;11.594;2023-01-30T10:12:27;2.00;99.90
7445;DHT22;3764;48.126;11.594;2023-01-30T10:20:54;2.00;99.90
7445;DHT22;3764;48.126;11.594;2023-01-30T10:26:17;2.10;99.90
7445;DHT22;3764;48.126;11.594;2023-01-30T10:28:52;2.10;99.90
7445;DHT22;3764;48.126;11.594;2023-01-30T10:31:22;2.10;99.90
7445;DHT22;3764;48.126;11.594;2023-01-30T10:33:55;2.20;99.90
7445;DHT22;3764;48.126;11.594;2023-01-30T10:36:30;2.20;99.90
7445;DHT22;3764;48.126;11.594;2023-01-30T10:39:02;2.30;99.90
7445;DHT22;3764;48.126;11.594;2023-01-30T10:41:35;2.40;99.90
7445;DHT22;3764;48.126;11.594;2023-01-30T10:44:07;2.40;99.90
7445;DHT22;3764;48.126;11.594;2023-01-30T10:46:48;2.40;99.90
7445;DHT22;3764;48.126;11.594;2023-01-30T10:49:22;2.50;99.90
7445;DHT22;3764;48.126;11.594;2023-01-30T10:51:58;2.50;99.90
7445;DHT22;3764;48.126;11.594;2023-01-30T10:54:31;2.60;99.90
7445;DHT22;3764;48.126;11.594;2023-01-30T10:57:05;2.70;99.90
7445;DHT22;3764;48.126;11.594;2023-01-30T10:59:48;2.90;99.90
7445;DHT22;3764;48.126;11.594;2023-01-30T11:02:23;3.00;99.90
7445;DHT22;3764;48.126;11.594;2023-01-30T11:04:56;3.10;99.90
7445;DHT22;3764;48.126;11.594;2023-01-30T11:07:28;3.10;99.90
7445;DHT22;3764;48.126;11.594;2023-01-30T11:09:57;3.20;99.90
7445;DHT22;3764;48.126;11.594;2023-01-30T11:12:24;3.30;99.90
7445;DHT22;3764;48.126;11.594;2023-01-30T11:14:53;3.30;99.90
7445;DHT22;3764;48.126;11.594;2023-01-30T11:17:28;3.30;99.90
7445;DHT22;3764;48.126;11.594;2023-01-30T11:19:57;3.30;99.90
7445;DHT22;3764;48.126;11.594;2023-01-30T11:22:30;3.30;99.90
7445;DHT22;3764;48.126;11.594;2023-01-30T11:25:00;3.40;99.90
7445;DHT22;3764;48.126;11.594;2023-01-30T11:27:29;3.30;99.90
7445;DHT22;3764;48.126;11.594;2023-01-30T11:30:11;3.40;99.90
7445;DHT22;3764;48.126;11.594;2023-01-30T11:32:41;3.40;99.90
7445;DHT22;3764;48.126;11.594;2023-01-30T11:35:23;3.50;99.90
7445;DHT22;3764;48.126;11.594;2023-01-30T11:37:52;3.50;99.90
7445;DHT22;3764;48.126;11.594;2023-01-30T11:40:27;3.60;99.90
7445;DHT22;3764;48.126;11.594;2023-01-30T11:43:02;3.60;99.90
7445;DHT22;3764;48.126;11.594;2023-01-30T11:45:34;3.70;99.90
7445;DHT22;3764;48.126;11.594;2023-01-30T11:48:09;3.70;99.90
7445;DHT22;3764;48.126;11.594;2023-01-30T11:50:40;3.70;99.90
7445;DHT22;3764;48.126;11.594;2023-01-30T11:53:22;3.90;99.90
7445;DHT22;3764;48.126;11.594;2023-01-30T11:55:50;3.80;99.90
7445;DHT22;3764;48.126;11.594;2023-01-30T11:58:20;3.70;99.90
7445;DHT22;3764;48.126;11.594;2023-01-30T12:00:48;3.70;99.90
7445;DHT22;3764;48.126;11.594;2023-01-30T12:03:18;3.70;99.90
7445;DHT22;3764;48.126;11.594;2023-01-30T12:05:48;3.70;99.90
7445;DHT22;3764;48.126;11.594;2023-01-30T12:08:25;3.70;99.90
7445;DHT22;3764;48.126;11.594;2023-01-30T12:10:54;3.70;99.90
7445;DHT22;3764;48.126;11.594;2023-01-30T12:13:28;3.70;99.90
7445;DHT22;3764;48.126;11.594;2023-01-30T12:16:15;3.70;99.90
7445;DHT22;3764;48.126;11.594;2023-01-30T12:18:50;3.70;99.90
7445;DHT22;3764;48.126;11.594;2023-01-30T12:21:30;3.60;99.90
7445;DHT22;3764;48.126;11.594;2023-01-30T12:24:10;3.70;99.90
7445;DHT22;3764;48.126;11.594;2023-01-30T12:26:43;3.60;99.90
7445;DHT22;3764;48.126;11.594;2023-01-30T12:29:22;3.60;99.90
7445;DHT22;3764;48.126;11.594;2023-01-30T12:32:01;3.60;99.90
7445;DHT22;3764;48.126;11.594;2023-01-30T12:34:30;3.60;99.90
7445;DHT22;3764;48.126;11.594;2023-01-30T12:37:07;3.50;99.90
7445;DHT22;3764;48.126;11.594;2023-01-30T12:39:49;3.60;99.90
7445;DHT22;3764;48.126;11.594;2023-01-30T12:42:31;3.60;99.90
7445;DHT22;3764;48.126;11.594;2023-01-30T12:45:13;3.50;99.90
7445;DHT22;3764;48.126;11.594;2023-01-30T12:48:12;3.50;99.90
7445;DHT22;3764;48.126;11.594;2023-01-30T12:50:55;3.50;99.90
7445;DHT22;3764;48.126;11.594;2023-01-30T12:53:32;3.50;99.90
7445;DHT22;3764;48.126;11.594;2023-01-30T12:56:22;3.50;99.90
7445;DHT22;3764;48.126;11.594;2023-01-30T12:58:56;3.60;99.90
7445;DHT22;3764;48.126;11.594;2023-01-30T13:01:30;3.60;99.90
7445;DHT22;3764;48.126;11.594;2023-01-30T13:04:09;3.60;99.90
7445;DHT22;3764;48.126;11.594;2023-01-30T13:06:57;3.60;99.90
7445;DHT22;3764;48.126;11.594;2023-01-30T13:09:53;3.60;99.90
7445;DHT22;3764;48.126;11.594;2023-01-30T13:12:31;3.60;99.90
7445;DHT22;3764;48.126;11.594;2023-01-30T13:15:13;3.50;99.90
7445;DHT22;3764;48.126;11.594;2023-01-30T13:17:52;3.60;99.90
7445;DHT22;3764;48.126;11.594;2023-01-30T13:20:34;3.60;99.90
7445;DHT22;3764;48.126;11.594;2023-01-30T13:23:13;3.60;99.90
7445;DHT22;3764;48.126;11.594;2023-01-30T13:25:49;3.60;99.90
7445;DHT22;3764;48.126;11.594;2023-01-30T13:28:22;3.60;99.90
7445;DHT22;3764;48.126;11.594;2023-01-30T13:30:51;3.60;99.90
7445;DHT22;3764;48.126;11.594;2023-01-30T13:33:21;3.60;99.90
7445;DHT22;3764;48.126;11.594;2023-01-30T13:35:52;3.60;99.90
7445;DHT22;3764;48.126;11.594;2023-01-30T13:38:23;3.60;99.90
7445;DHT22;3764;48.126;11.594;2023-01-30T13:40:53;3.70;99.90
7445;DHT22;3764;48.126;11.594;2023-01-30T13:43:26;3.70;99.90
7445;DHT22;3764;48.126;11.594;2023-01-30T13:45:57;3.70;99.90
7445;DHT22;3764;48.126;11.594;2023-01-30T13:48:48;3.80;99.90
7445;DHT22;3764;48.126;11.594;2023-01-30T13:51:26;3.80;99.90
7445;DHT22;3764;48.126;11.594;2023-01-30T13:54:02;3.80;99.90
7445;DHT22;3764;48.126;11.594;2023-01-30T13:56:39;3.80;99.90
7445;DHT22;3764;48.126;11.594;2023-01-30T13:59:17;3.90;99.90
7445;DHT22;3764;48.126;11.594;2023-01-30T14:02:07;3.90;99.90
7445;DHT22;3764;48.126;11.594;2023-01-30T14:04:46;3.80;99.90
7445;DHT22;3764;48.126;11.594;2023-01-30T14:07:17;3.80;99.90
7445;DHT22;3764;48.126;11.594;2023-01-30T14:09:49;3.80;99.90
7445;DHT22;3764;48.126;11.594;2023-01-30T14:12:19;3.80;99.90
7445;DHT22;3764;48.126;11.594;2023-01-30T14:15:02;3.80;99.90
7445;DHT22;3764;48.126;11.594;2023-01-30T14:17:29;3.90;99.90
7445;DHT22;3764;48.126;11.594;2023-01-30T14:19:59;3.90;99.90
7445;DHT22;3764;48.126;11.594;2023-01-30T14:22:32;3.90;99.90
7445;DHT22;3764;48.126;11.594;2023-01-30T14:31:51;3.90;99.90
7445;DHT22;3764;48.126;11.594;2023-01-30T14:34:46;3.80;99.90
7445;DHT22;3764;48.126;11.594;2023-01-30T14:37:51;3.80;99.90
7445;DHT22;3764;48.126;11.594;2023-01-30T14:40:44;3.80;99.90
7445;DHT22;3764;48.126;11.594;2023-01-30T14:43:49;3.80;99.90
7445;DHT22;3764;48.126;11.594;2023-01-30T14:46:41;3.80;99.90
7445;DHT22;3764;48.126;11.594;2023-01-30T14:49:30;3.80;99.90
7445;DHT22;3764;48.126;11.594;2023-01-30T14:51:59;3.80;99.90
7445;DHT22;3764;48.126;11.594;2023-01-30T14:54:35;3.70;99.90
7445;DHT22;3764;48.126;11.594;2023-01-30T14:57:13;3.70;99.90
7445;DHT22;3764;48.126;11.594;2023-01-30T14:59:48;3.70;99.90
7445;DHT22;3764;48.126;11.594;2023-01-30T15:02:20;3.70;99.90
7445;DHT22;3764;48.126;11.594;2023-01-30T15:04:58;3.70;99.90
7445;DHT22;3764;48.126;11.594;2023-01-30T15:07:30;3.70;99.90
7445;DHT22;3764;48.126;11.594;2023-01-30T15:10:00;3.70;99.90
7445;DHT22;3764;48.126;11.594;2023-01-30T15:12:45;3.70;99.90
7445;DHT22;3764;48.126;11.594;2023-01-30T15:15:22;3.70;99.90
7445;DHT22;3764;48.126;11.594;2023-01-30T15:20:57;3.70;99.90
7445;DHT22;3764;48.126;11.594;2023-01-30T15:23:45;3.70;99.90
7445;DHT22;3764;48.126;11.594;2023-01-30T15:26:25;3.70;99.90
7445;DHT22;3764;48.126;11.594;2023-01-30T15:32:12;3.60;99.90
7445;DHT22;3764;48.126;11.594;2023-01-30T15:34:48;3.60;99.90
7445;DHT22;3764;48.126;11.594;2023-01-30T15:37:29;3.60;99.90
7445;DHT22;3764;48.126;11.594;2023-01-30T15:40:24;3.50;99.90
7445;DHT22;3764;48.126;11.594;2023-01-30T15:43:00;3.50;99.90
7445;DHT22;3764;48.126;11.594;2023-01-30T15:45:38;3.50;99.90
7445;DHT22;3764;48.126;11.594;2023-01-30T15:51:09;3.40;99.90
7445;DHT22;3764;48.126;11.594;2023-01-30T15:53:42;3.40;99.90
7445;DHT22;3764;48.126;11.594;2023-01-30T15:56:15;3.40;99.90
7445;DHT22;3764;48.126;11.594;2023-01-30T15:58:43;3.40;99.90
7445;DHT22;3764;48.126;11.594;2023-01-30T16:01:16;3.30;99.90
7445;DHT22;3764;48.126;11.594;2023-01-30T16:03:43;3.30;99.90
7445;DHT22;3764;48.126;11.594;2023-01-30T16:06:21;3.30;99.90
7445;DHT22;3764;48.126;11.594;2023-01-30T16:08:57;3.30;99.90
7445;DHT22;3764;48.126;11.594;2023-01-30T16:11:35;3.30;99.90
7445;DHT22;3764;48.126;11.594;2023-01-30T16:14:03;3.30;99.90
7445;DHT22;3764;48.126;11.594;2023-01-30T16:16:31;3.30;99.90
7445;DHT22;3764;48.126;11.594;2023-01-30T16:19:03;3.30;99.90
7445;DHT22;3764;48.126;11.594;2023-01-30T16:21:35;3.30;99.90
7445;DHT22;3764;48.126;11.594;2023-01-30T16:24:13;3.30;99.90
7445;DHT22;3764;48.126;11.594;2023-01-30T16:26:43;3.30;99.90
7445;DHT22;3764;48.126;11.594;2023-01-30T16:29:13;3.30;99.90
7445;DHT22;3764;48.126;11.594;2023-01-30T16:31:45;3.20;99.90
7445;DHT22;3764;48.126;11.594;2023-01-30T16:34:27;3.20;99.90
7445;DHT22;3764;48.126;11.594;2023-01-30T16:36:55;3.20;99.90
7445;DHT22;3764;48.126;11.594;2023-01-30T16:39:30;3.20;99.90
7445;DHT22;3764;48.126;11.594;2023-01-30T16:41:58;3.20;99.90
7445;DHT22;3764;48.126;11.594;2023-01-30T16:44:26;3.20;99.90
7445;DHT22;3764;48.126;11.594;2023-01-30T16:46:59;3.20;99.90
7445;DHT22;3764;48.126;11.594;2023-01-30T16:49:38;3.10;99.90
7445;DHT22;3764;48.126;11.594;2023-01-30T16:52:14;3.20;99.90
7445;DHT22;3764;48.126;11.594;2023-01-30T16:54:47;3.10;99.90